createdAt,value
2019-02-20T00:00:22.000Z,99085.55
2019-02-20T00:01:23.118Z,99092.58
2019-02-20T00:02:24.336Z,99104.84
2019-02-20T00:03:25.466Z,99107.53
2019-02-20T00:04:26.597Z,99103.50
2019-02-20T00:05:27.708Z,99103.16
2019-02-20T00:06:28.824Z,99103.50
2019-02-20T00:07:29.942Z,99094.63
2019-02-20T00:08:31.076Z,99115.22
2019-02-20T00:09:32.308Z,99101.00
2019-02-20T00:10:33.527Z,99127.80
2019-02-20T00:11:34.748Z,99123.47
2019-02-20T00:12:35.965Z,99135.53
2019-02-20T00:13:37.095Z,99122.13
2019-02-20T00:14:38.216Z,99124.49
2019-02-20T00:15:39.431Z,99141.06
2019-02-20T00:16:40.554Z,99132.53
2019-02-20T00:17:41.772Z,99149.11
2019-02-20T00:18:42.901Z,99153.97
2019-02-20T00:19:44.018Z,99158.48
2019-02-20T00:20:45.143Z,99157.14
2019-02-20T00:21:46.253Z,99153.13
2019-02-20T00:22:47.371Z,99151.29
2019-02-20T00:23:48.502Z,99156.33
2019-02-20T00:24:49.623Z,99164.87
2019-02-20T00:25:50.742Z,99164.05
2019-02-20T00:26:51.855Z,99168.08
2019-02-20T00:27:52.970Z,99168.08
2019-02-20T00:28:54.097Z,99167.44
2019-02-20T00:29:55.259Z,99171.14
2019-02-20T00:30:56.481Z,99172.98
2019-02-20T00:31:57.606Z,99178.86
2019-02-20T00:32:58.714Z,99191.95
2019-02-20T00:33:59.874Z,99185.11
2019-02-20T00:35:00.984Z,99192.66
2019-02-20T00:36:02.097Z,99189.97
2019-02-20T00:37:03.312Z,99189.66
2019-02-20T00:38:04.433Z,99188.00
2019-02-20T00:39:07.463Z,99193.84
2019-02-20T00:40:10.389Z,99211.27
2019-02-20T00:41:11.491Z,99219.83
2019-02-20T00:42:12.606Z,99213.13
2019-02-20T00:43:13.824Z,99211.48
2019-02-20T00:44:16.879Z,99213.31
2019-02-20T00:45:28.678Z,99208.97
2019-02-20T00:46:34.465Z,99219.20
2019-02-20T00:47:37.510Z,99218.03
2019-02-20T00:48:40.546Z,99237.31
2019-02-20T00:49:42.399Z,99217.22
2019-02-20T00:50:45.420Z,99229.42
2019-02-20T00:51:51.198Z,99235.62
2019-02-20T00:52:54.216Z,99230.94
2019-02-20T00:53:57.259Z,99240.84
2019-02-20T00:54:58.534Z,99241.33
2019-02-20T00:55:59.640Z,99240.52
2019-02-20T00:57:00.753Z,99266.99
2019-02-20T00:58:01.879Z,99252.75
2019-02-20T00:59:02.988Z,99248.94
2019-02-20T01:00:07.522Z,99262.83
2019-02-20T01:01:08.739Z,99258.48
2019-02-20T01:02:09.857Z,99263.53
2019-02-20T01:03:10.985Z,99252.50
2019-02-20T01:04:12.718Z,99269.91
2019-02-20T01:05:14.145Z,99282.98
2019-02-20T01:06:15.265Z,99285.66
2019-02-20T01:07:16.386Z,99289.67
2019-02-20T01:08:17.498Z,99285.66
2019-02-20T01:09:18.815Z,99285.87
2019-02-20T01:10:19.940Z,99306.77
2019-02-20T01:11:21.255Z,99313.47
2019-02-20T01:12:22.369Z,99323.37
2019-02-20T01:13:23.489Z,99319.84
2019-02-20T01:14:24.608Z,99326.54
2019-02-20T01:15:26.248Z,99321.19
2019-02-20T01:16:27.365Z,99343.45
2019-02-20T01:17:28.483Z,99320.37
2019-02-20T01:18:29.604Z,99322.52
2019-02-20T01:19:30.856Z,99323.37
2019-02-20T01:20:32.007Z,99333.23
2019-02-20T01:21:33.124Z,99334.89
2019-02-20T01:22:34.239Z,99326.54
2019-02-20T01:23:35.353Z,99332.91
2019-02-20T01:24:36.471Z,99340.95
2019-02-20T01:25:37.650Z,99347.16
2019-02-20T01:26:38.769Z,99347.64
2019-02-20T01:27:39.887Z,99352.69
2019-02-20T01:28:41.008Z,99352.19
2019-02-20T01:29:42.108Z,99362.06
2019-02-20T01:30:43.329Z,99376.47
2019-02-20T01:31:44.446Z,99371.11
2019-02-20T01:32:45.570Z,99384.71
2019-02-20T01:33:46.686Z,99386.55
2019-02-20T01:34:50.740Z,99388.41
2019-02-20T01:35:51.888Z,99372.83
2019-02-20T01:36:53.003Z,99373.03
2019-02-20T01:37:54.113Z,99389.59
2019-02-20T01:38:55.232Z,99394.62
2019-02-20T01:39:56.345Z,99397.80
2019-02-20T01:40:57.498Z,99398.00
2019-02-20T01:41:58.724Z,99403.36
2019-02-20T01:42:59.835Z,99401.17
2019-02-20T01:44:00.950Z,99399.19
2019-02-20T01:45:02.162Z,99404.55
2019-02-20T01:46:03.282Z,99382.31
2019-02-20T01:47:04.404Z,99394.85
2019-02-20T01:48:05.539Z,99392.70
2019-02-20T01:49:06.670Z,99393.72
2019-02-20T01:50:08.182Z,99399.89
2019-02-20T01:51:09.305Z,99398.75
2019-02-20T01:52:10.420Z,99407.59
2019-02-20T01:53:11.537Z,99400.09
2019-02-20T01:54:12.653Z,99400.58
2019-02-20T01:55:13.855Z,99437.75
2019-02-20T01:56:14.996Z,99433.73
2019-02-20T01:57:16.108Z,99427.56
2019-02-20T01:58:17.227Z,99447.00
2019-02-20T01:59:18.342Z,99452.36
2019-02-20T02:00:19.563Z,99451.19
2019-02-20T02:01:20.683Z,99456.05
2019-02-20T02:02:21.900Z,99427.61
2019-02-20T02:03:23.129Z,99447.17
2019-02-20T02:04:24.377Z,99458.41
2019-02-20T02:05:25.594Z,99456.22
2019-02-20T02:06:26.729Z,99475.48
2019-02-20T02:07:27.835Z,99478.66
2019-02-20T02:08:28.998Z,99479.50
2019-02-20T02:09:30.060Z,99499.27
2019-02-20T02:10:31.174Z,99498.94
2019-02-20T02:11:32.428Z,99489.23
2019-02-20T02:12:33.648Z,99497.27
2019-02-20T02:13:34.767Z,99510.83
2019-02-20T02:14:35.877Z,99510.34
2019-02-20T02:15:36.990Z,99512.00
2019-02-20T02:16:38.116Z,99507.14
2019-02-20T02:17:39.232Z,99502.80
2019-02-20T02:18:40.353Z,99506.00
2019-02-20T02:19:41.456Z,99521.22
2019-02-20T02:20:42.573Z,99525.55
2019-02-20T02:21:43.727Z,99524.22
2019-02-20T02:22:44.848Z,99514.03
2019-02-20T02:23:47.681Z,99541.63
2019-02-20T02:24:48.887Z,99542.14
2019-02-20T02:25:50.016Z,99554.52
2019-02-20T02:26:51.328Z,99552.33
2019-02-20T02:27:52.447Z,99546.48
2019-02-20T02:28:53.561Z,99538.13
2019-02-20T02:29:54.680Z,99565.23
2019-02-20T02:30:55.791Z,99555.86
2019-02-20T02:31:57.028Z,99581.30
2019-02-20T02:32:58.133Z,99576.44
2019-02-20T02:33:59.355Z,99565.23
2019-02-20T02:35:00.478Z,99562.55
2019-02-20T02:36:01.592Z,99572.73
2019-02-20T02:37:02.721Z,99567.91
2019-02-20T02:38:03.838Z,99571.08
2019-02-20T02:39:05.159Z,99582.63
2019-02-20T02:40:07.272Z,99593.02
2019-02-20T02:41:08.384Z,99597.85
2019-02-20T02:42:09.517Z,99587.66
2019-02-20T02:43:10.636Z,99597.36
2019-02-20T02:44:11.748Z,99621.13
2019-02-20T02:45:12.865Z,99578.78
2019-02-20T02:46:13.993Z,99581.46
2019-02-20T02:47:15.210Z,99592.70
2019-02-20T02:48:16.436Z,99614.60
2019-02-20T02:49:17.578Z,99614.77
2019-02-20T02:50:18.695Z,99609.73
2019-02-20T02:51:19.934Z,99615.30
2019-02-20T02:52:21.073Z,99620.13
2019-02-20T02:53:30.315Z,99629.82
2019-02-20T02:54:25.208Z,99623.98
2019-02-20T02:55:26.321Z,99636.19
2019-02-20T02:56:27.440Z,99629.49
2019-02-20T02:57:28.596Z,99629.82
2019-02-20T02:58:29.731Z,99617.45
2019-02-20T02:59:30.850Z,99642.88
2019-02-20T03:00:31.956Z,99656.27
2019-02-20T03:01:33.077Z,99650.59
2019-02-20T03:02:34.314Z,99665.16
2019-02-20T03:03:35.433Z,99653.59
2019-02-20T03:04:36.664Z,99659.96
2019-02-20T03:05:37.795Z,99646.57
2019-02-20T03:06:38.913Z,99660.80
2019-02-20T03:07:40.334Z,99666.84
2019-02-20T03:08:41.537Z,99668.52
2019-02-20T03:09:42.660Z,99662.50
2019-02-20T03:10:43.880Z,99688.43
2019-02-20T03:11:44.992Z,99675.05
2019-02-20T03:12:46.125Z,99664.86
2019-02-20T03:13:47.240Z,99667.20
2019-02-20T03:14:48.353Z,99687.77
2019-02-20T03:15:49.466Z,99682.61
2019-02-20T03:16:50.587Z,99684.44
2019-02-20T03:17:51.742Z,99688.13
2019-02-20T03:18:52.863Z,99693.16
2019-02-20T03:19:53.977Z,99690.48
2019-02-20T03:20:55.092Z,99695.50
2019-02-20T03:21:56.224Z,99711.23
2019-02-20T03:22:57.486Z,99719.79
2019-02-20T03:23:58.606Z,99702.88
2019-02-20T03:24:59.828Z,99704.91
2019-02-20T03:26:00.946Z,99718.48
2019-02-20T03:27:02.056Z,99705.25
2019-02-20T03:28:03.180Z,99747.42
2019-02-20T03:29:04.296Z,99718.83
2019-02-20T03:30:07.010Z,99737.40
2019-02-20T03:31:08.128Z,99712.98
2019-02-20T03:32:09.243Z,99716.67
2019-02-20T03:33:10.477Z,99723.03
2019-02-20T03:34:11.641Z,99743.59
2019-02-20T03:35:12.725Z,99728.88
2019-02-20T03:36:13.866Z,99730.41
2019-02-20T03:37:14.990Z,99735.23
2019-02-20T03:38:16.120Z,99746.13
2019-02-20T03:39:17.248Z,99743.13
2019-02-20T03:40:18.342Z,99766.69
2019-02-20T03:41:19.462Z,99752.16
2019-02-20T03:42:20.596Z,99768.55
2019-02-20T03:43:21.825Z,99756.18
2019-02-20T03:44:22.936Z,99747.63
2019-02-20T03:45:24.055Z,99759.34
2019-02-20T03:46:25.169Z,99756.18
2019-02-20T03:47:26.282Z,99769.23
2019-02-20T03:48:27.464Z,99775.92
2019-02-20T03:49:28.578Z,99765.89
2019-02-20T03:50:29.692Z,99772.91
2019-02-20T03:51:30.804Z,99778.27
2019-02-20T03:52:31.917Z,99762.89
2019-02-20T03:53:33.050Z,99802.02
2019-02-20T03:54:34.170Z,99806.19
2019-02-20T03:55:35.482Z,99808.05
2019-02-20T03:56:36.597Z,99800.52
2019-02-20T03:57:37.709Z,99805.38
2019-02-20T03:58:38.845Z,99799.50
2019-02-20T03:59:40.360Z,99807.72
2019-02-20T04:00:41.581Z,99821.77
2019-02-20T04:01:42.702Z,99821.44
2019-02-20T04:02:43.930Z,99822.25
2019-02-20T04:03:45.076Z,99813.73
2019-02-20T04:04:46.210Z,99842.33
2019-02-20T04:05:47.322Z,99845.00
2019-02-20T04:06:48.442Z,99842.33
2019-02-20T04:07:49.567Z,99836.97
2019-02-20T04:08:50.712Z,99853.03
2019-02-20T04:09:51.825Z,99849.87
2019-02-20T04:10:53.045Z,99871.27
2019-02-20T04:11:54.264Z,99876.63
2019-02-20T04:12:55.380Z,99865.59
2019-02-20T04:13:56.523Z,99873.63
2019-02-20T04:14:57.616Z,99891.34
2019-02-20T04:15:58.726Z,99880.31
2019-02-20T04:16:59.841Z,99891.83
2019-02-20T04:18:00.951Z,99899.05
2019-02-20T04:19:02.109Z,99907.41
2019-02-20T04:20:05.095Z,99902.05
2019-02-20T04:21:06.204Z,99909.56
2019-02-20T04:22:07.317Z,99911.42
2019-02-20T04:23:08.437Z,99910.41
2019-02-20T04:24:09.566Z,99901.86
2019-02-20T04:25:10.782Z,99915.77
2019-02-20T04:26:11.900Z,99890.34
2019-02-20T04:27:13.012Z,99927.81
2019-02-20T04:28:14.232Z,99930.97
2019-02-20T04:29:15.463Z,99926.14
2019-02-20T04:30:16.684Z,99931.49
2019-02-20T04:31:17.917Z,99937.17
2019-02-20T04:32:19.027Z,99939.85
2019-02-20T04:33:20.140Z,99944.69
2019-02-20T04:34:21.289Z,99941.86
2019-02-20T04:35:22.407Z,99948.22
2019-02-20T04:36:23.526Z,99946.69
2019-02-20T04:37:24.635Z,99937.66
2019-02-20T04:38:25.753Z,99953.38
2019-02-20T04:39:27.060Z,99926.13
2019-02-20T04:40:28.178Z,99964.42
2019-02-20T04:41:29.880Z,99961.93
2019-02-20T04:42:30.989Z,99955.57
2019-02-20T04:43:32.103Z,99959.25
2019-02-20T04:44:33.231Z,99965.95
2019-02-20T04:45:34.349Z,99951.55
2019-02-20T04:46:35.458Z,99970.45
2019-02-20T04:47:36.579Z,99964.09
2019-02-20T04:48:37.717Z,99955.57
2019-02-20T04:49:38.950Z,99959.25
2019-02-20T04:50:40.064Z,99955.23
2019-02-20T04:51:41.179Z,99941.52
2019-02-20T04:52:42.300Z,99961.93
2019-02-20T04:53:43.414Z,99973.30
2019-02-20T04:54:44.570Z,99995.05
2019-02-20T04:55:45.769Z,99973.80
2019-02-20T04:56:46.892Z,99974.80
2019-02-20T04:58:09.989Z,99982.34
2019-02-20T04:59:11.103Z,99990.38
2019-02-20T05:00:12.837Z,99998.88
2019-02-20T05:01:13.963Z,99998.55
2019-02-20T05:02:15.175Z,99995.05
2019-02-20T05:03:16.387Z,99997.06
2019-02-20T05:04:17.517Z,99993.53
2019-02-20T05:05:18.645Z,99990.03
2019-02-20T05:06:19.756Z,99992.71
2019-02-20T05:07:20.884Z,99996.73
2019-02-20T05:08:21.997Z,100004.75
2019-02-20T05:09:23.108Z,99994.05
2019-02-20T05:10:24.235Z,100014.13
2019-02-20T05:11:25.354Z,99998.06
2019-02-20T05:12:26.471Z,100028.33
2019-02-20T05:13:27.584Z,100019.48
2019-02-20T05:14:29.006Z,100023.98
2019-02-20T05:15:30.214Z,100021.30
2019-02-20T05:16:31.505Z,100035.20
2019-02-20T05:17:32.629Z,100039.22
2019-02-20T05:18:33.853Z,100026.66
2019-02-20T05:19:34.962Z,100034.34
2019-02-20T05:20:36.118Z,100038.88
2019-02-20T05:21:37.264Z,100046.05
2019-02-20T05:22:38.355Z,100053.59
2019-02-20T05:23:39.471Z,100044.38
2019-02-20T05:24:40.581Z,100053.27
2019-02-20T05:25:41.735Z,100041.70
2019-02-20T05:26:42.850Z,100060.95
2019-02-20T05:27:43.968Z,100077.84
2019-02-20T05:28:45.089Z,100060.11
2019-02-20T05:29:46.286Z,100085.38
2019-02-20T05:30:47.421Z,100082.37
2019-02-20T05:31:48.537Z,100085.05
2019-02-20T05:32:49.650Z,100097.76
2019-02-20T05:33:50.772Z,100091.22
2019-02-20T05:34:51.898Z,100076.50
2019-02-20T05:35:53.063Z,100099.58
2019-02-20T05:36:54.185Z,100095.56
2019-02-20T05:37:55.303Z,100100.44
2019-02-20T05:38:56.429Z,100105.78
2019-02-20T05:39:57.551Z,100103.11
2019-02-20T05:40:58.670Z,100111.48
2019-02-20T05:41:59.788Z,100119.84
2019-02-20T05:43:01.242Z,100120.17
2019-02-20T05:44:02.348Z,100121.52
2019-02-20T05:45:05.001Z,100112.14
2019-02-20T05:46:06.171Z,100118.84
2019-02-20T05:47:07.283Z,100121.18
2019-02-20T05:48:08.407Z,100131.70
2019-02-20T05:49:09.556Z,100141.07
2019-02-20T05:50:10.799Z,100162.66
2019-02-20T05:51:12.065Z,100142.92
2019-02-20T05:52:13.179Z,100136.72
2019-02-20T05:53:14.297Z,100147.61
2019-02-20T05:54:15.418Z,100152.63
2019-02-20T05:55:16.625Z,100165.66
2019-02-20T05:56:17.779Z,100156.45
2019-02-20T05:57:19.002Z,100158.30
2019-02-20T05:58:20.114Z,100180.20
2019-02-20T05:59:21.231Z,100183.88
2019-02-20T06:00:22.453Z,100183.02
2019-02-20T06:01:23.582Z,100178.52
2019-02-20T06:02:24.797Z,100180.86
2019-02-20T06:03:25.917Z,100182.54
2019-02-20T06:04:27.049Z,100175.00
2019-02-20T06:05:28.161Z,100183.54
2019-02-20T06:06:29.409Z,100200.08
2019-02-20T06:07:30.618Z,100195.06
2019-02-20T06:08:31.729Z,100197.73
2019-02-20T06:09:32.847Z,100207.81
2019-02-20T06:10:33.963Z,100197.93
2019-02-20T06:11:35.117Z,100214.52
2019-02-20T06:12:36.230Z,100196.13
2019-02-20T06:13:37.451Z,100220.22
2019-02-20T06:14:38.573Z,100219.03
2019-02-20T06:15:39.685Z,100220.05
2019-02-20T06:16:40.817Z,100233.44
2019-02-20T06:17:41.988Z,100250.37
2019-02-20T06:18:43.141Z,100242.00
2019-02-20T06:19:44.358Z,100247.37
2019-02-20T06:20:45.480Z,100242.02
2019-02-20T06:21:46.610Z,100252.25
2019-02-20T06:22:47.728Z,100259.30
2019-02-20T06:23:48.857Z,100274.37
2019-02-20T06:24:49.981Z,100264.52
2019-02-20T06:25:51.103Z,100268.36
2019-02-20T06:26:52.268Z,100292.17
2019-02-20T06:27:53.346Z,100304.05
2019-02-20T06:28:54.462Z,100279.45
2019-02-20T06:29:55.578Z,100275.59
2019-02-20T06:30:56.695Z,100289.39
2019-02-20T06:31:57.844Z,100306.14
2019-02-20T06:32:58.968Z,100303.95
2019-02-20T06:34:00.077Z,100299.78
2019-02-20T06:35:01.307Z,100308.16
2019-02-20T06:36:02.416Z,100304.47
2019-02-20T06:37:03.544Z,100318.73
2019-02-20T06:38:04.663Z,100325.77
2019-02-20T06:39:05.780Z,100325.43
2019-02-20T06:40:08.693Z,100320.06
2019-02-20T06:41:09.913Z,100320.24
2019-02-20T06:42:11.047Z,100322.59
2019-02-20T06:43:12.157Z,100330.11
2019-02-20T06:44:13.273Z,100330.62
2019-02-20T06:45:14.391Z,100335.66
2019-02-20T06:46:15.504Z,100349.91
2019-02-20T06:47:16.632Z,100354.61
2019-02-20T06:48:17.754Z,100356.95
2019-02-20T06:49:18.873Z,100349.05
2019-02-20T06:50:20.025Z,100349.72
2019-02-20T06:51:21.133Z,100349.56
2019-02-20T06:52:22.260Z,100357.95
2019-02-20T06:53:23.479Z,100368.83
2019-02-20T06:54:24.612Z,100359.77
2019-02-20T06:55:25.710Z,100364.98
2019-02-20T06:56:26.937Z,100373.38
2019-02-20T06:57:28.083Z,100366.84
2019-02-20T06:58:29.348Z,100378.27
2019-02-20T06:59:30.469Z,100381.62
2019-02-20T07:00:31.688Z,100379.09
2019-02-20T07:01:32.908Z,100384.97
2019-02-20T07:02:35.760Z,100382.95
2019-02-20T07:03:36.983Z,100392.01
2019-02-20T07:04:38.113Z,100394.69
2019-02-20T07:05:39.620Z,100398.38
2019-02-20T07:06:53.288Z,100393.50
2019-02-20T07:08:07.103Z,100394.69
2019-02-20T07:09:36.404Z,100399.86
2019-02-20T07:11:12.948Z,100414.47
2019-02-20T07:12:34.677Z,100412.80
2019-02-20T07:14:00.181Z,100411.45
2019-02-20T07:15:13.362Z,100414.81
2019-02-20T07:16:33.405Z,100423.87
2019-02-20T07:17:38.121Z,100424.70
2019-02-20T07:18:48.869Z,100448.04
2019-02-20T07:20:10.129Z,100438.31
2019-02-20T07:21:20.936Z,100451.73
2019-02-20T07:22:37.762Z,100453.07
2019-02-20T07:23:54.753Z,100453.07
2019-02-20T07:25:08.474Z,100460.27
2019-02-20T07:26:31.576Z,100466.50
2019-02-20T07:27:54.289Z,100465.48
2019-02-20T07:29:04.990Z,100481.26
2019-02-20T07:30:07.511Z,100481.59
2019-02-20T07:31:08.629Z,100478.91
2019-02-20T07:32:12.159Z,100494.86
2019-02-20T07:33:13.366Z,100492.33
2019-02-20T07:34:14.481Z,100480.58
2019-02-20T07:35:15.643Z,100497.36
2019-02-20T07:36:16.813Z,100502.24
2019-02-20T07:37:17.952Z,100506.61
2019-02-20T07:38:19.163Z,100509.62
2019-02-20T07:39:20.279Z,100514.81
2019-02-20T07:40:21.394Z,100513.80
2019-02-20T07:41:22.508Z,100510.11
2019-02-20T07:42:23.788Z,100521.70
2019-02-20T07:43:24.905Z,100531.92
2019-02-20T07:44:26.021Z,100529.42
2019-02-20T07:45:27.139Z,100531.09
2019-02-20T07:46:28.256Z,100532.44
2019-02-20T07:47:29.390Z,100544.19
2019-02-20T07:48:30.504Z,100544.19
2019-02-20T07:49:31.636Z,100535.65
2019-02-20T07:50:32.772Z,100546.39
2019-02-20T07:51:33.898Z,100545.05
2019-02-20T07:52:35.049Z,100545.20
2019-02-20T07:53:36.153Z,100556.43
2019-02-20T07:54:37.273Z,100559.63
2019-02-20T07:55:38.402Z,100561.80
2019-02-20T07:56:39.525Z,100559.11
2019-02-20T07:57:40.657Z,100534.61
2019-02-20T07:58:41.765Z,100567.54
2019-02-20T07:59:42.883Z,100562.66
2019-02-20T08:00:43.999Z,100565.83
2019-02-20T08:01:45.216Z,100583.66
2019-02-20T08:02:46.403Z,100577.58
2019-02-20T08:03:47.489Z,100568.70
2019-02-20T08:04:48.609Z,100567.02
2019-02-20T08:05:49.731Z,100575.23
2019-02-20T08:06:50.849Z,100573.40
2019-02-20T08:07:52.005Z,100575.90
2019-02-20T08:08:53.123Z,100586.16
2019-02-20T08:09:54.244Z,100580.59
2019-02-20T08:10:55.362Z,100588.31
2019-02-20T08:11:56.471Z,100586.64
2019-02-20T08:12:57.642Z,100585.81
2019-02-20T08:13:58.767Z,100586.97
2019-02-20T08:14:59.872Z,100596.55
2019-02-20T08:16:01.090Z,100597.56
2019-02-20T08:17:02.206Z,100600.06
2019-02-20T08:18:03.325Z,100603.90
2019-02-20T08:19:04.542Z,100609.45
2019-02-20T08:20:07.813Z,100611.13
2019-02-20T08:21:08.933Z,100613.47
2019-02-20T08:22:10.526Z,100606.42
2019-02-20T08:23:11.797Z,100619.84
2019-02-20T08:24:12.916Z,100611.80
2019-02-20T08:25:22.553Z,100621.67
2019-02-20T08:26:17.062Z,100605.56
2019-02-20T08:27:18.168Z,100598.86
2019-02-20T08:28:19.331Z,100612.28
2019-02-20T08:29:20.455Z,100623.53
2019-02-20T08:30:21.575Z,100622.20
2019-02-20T08:31:22.701Z,100625.88
2019-02-20T08:32:23.827Z,100631.25
2019-02-20T08:33:24.985Z,100628.56
2019-02-20T08:34:26.106Z,100629.91
2019-02-20T08:35:27.225Z,100635.28
2019-02-20T08:36:28.346Z,100640.47
2019-02-20T08:37:29.464Z,100638.97
2019-02-20T08:38:30.594Z,100640.99
2019-02-20T08:39:31.832Z,100648.53
2019-02-20T08:40:32.946Z,100653.75
2019-02-20T08:41:34.075Z,100659.79
2019-02-20T08:42:35.251Z,100659.31
2019-02-20T08:43:36.351Z,100663.48
2019-02-20T08:44:37.472Z,100654.61
2019-02-20T08:45:38.587Z,100655.77
2019-02-20T08:46:39.805Z,100675.91
2019-02-20T08:47:40.921Z,100668.71
2019-02-20T08:48:42.048Z,100676.25
2019-02-20T08:49:43.183Z,100676.77
2019-02-20T08:50:44.322Z,100676.77
2019-02-20T08:51:45.435Z,100679.11
2019-02-20T08:52:46.553Z,100682.28
2019-02-20T08:53:47.686Z,100688.66
2019-02-20T08:54:48.801Z,100689.33
2019-02-20T08:55:49.918Z,100693.84
2019-02-20T08:56:51.036Z,100688.98
2019-02-20T08:57:52.357Z,100698.20
2019-02-20T08:58:53.485Z,100689.31
2019-02-20T08:59:54.704Z,100699.72
2019-02-20T09:00:55.924Z,100703.74
2019-02-20T09:01:57.045Z,100703.89
2019-02-20T09:02:58.157Z,100706.75
2019-02-20T09:03:59.321Z,100707.58
2019-02-20T09:05:00.445Z,100705.07
2019-02-20T09:06:01.560Z,100711.27
2019-02-20T09:07:02.674Z,100700.19
2019-02-20T09:08:03.797Z,100712.27
2019-02-20T09:09:05.208Z,100707.76
2019-02-20T09:10:08.719Z,100708.24
2019-02-20T09:11:09.832Z,100715.47
2019-02-20T09:12:10.948Z,100712.79
2019-02-20T09:13:12.067Z,100722.18
2019-02-20T09:14:13.208Z,100718.82
2019-02-20T09:15:14.309Z,100713.94
2019-02-20T09:16:15.420Z,100715.80
2019-02-20T09:17:16.550Z,100723.52
2019-02-20T09:18:17.648Z,100727.20
2019-02-20T09:19:18.778Z,100717.47
2019-02-20T09:20:19.895Z,100730.89
2019-02-20T09:21:21.029Z,100729.34
2019-02-20T09:22:22.124Z,100740.94
2019-02-20T09:23:23.245Z,100745.97
2019-02-20T09:24:24.479Z,100738.41
2019-02-20T09:25:25.591Z,100743.91
2019-02-20T09:26:26.710Z,100754.13
2019-02-20T09:27:27.838Z,100751.97
2019-02-20T09:28:28.994Z,100752.80
2019-02-20T09:29:30.122Z,100755.63
2019-02-20T09:30:31.428Z,100748.42
2019-02-20T09:31:32.546Z,100751.59
2019-02-20T09:32:33.763Z,100756.48
2019-02-20T09:33:34.880Z,100766.73
2019-02-20T09:34:36.031Z,100760.02
2019-02-20T09:35:37.145Z,100768.45
2019-02-20T09:36:38.260Z,100769.27
2019-02-20T09:37:39.483Z,100767.44
2019-02-20T09:38:40.696Z,100775.98
2019-02-20T09:39:43.224Z,100781.86
2019-02-20T09:40:44.550Z,100779.52
2019-02-20T09:41:45.669Z,100778.66
2019-02-20T09:42:49.088Z,100785.89
2019-02-20T09:43:50.203Z,100789.40
2019-02-20T09:44:51.360Z,100782.83
2019-02-20T09:45:52.588Z,100786.34
2019-02-20T09:46:53.704Z,100787.83
2019-02-20T09:47:54.828Z,100783.46
2019-02-20T09:48:55.944Z,100787.48
2019-02-20T09:49:57.091Z,100791.69
2019-02-20T09:50:58.230Z,100790.48
2019-02-20T09:51:59.348Z,100787.33
2019-02-20T09:53:00.519Z,100793.17
2019-02-20T09:54:01.744Z,100791.49
2019-02-20T09:55:05.324Z,100797.38
2019-02-20T09:56:06.428Z,100793.01
2019-02-20T09:57:07.553Z,100804.23
2019-02-20T09:58:08.669Z,100801.20
2019-02-20T09:59:09.782Z,100795.02
2019-02-20T10:00:15.697Z,100797.36
2019-02-20T10:01:16.814Z,100795.50
2019-02-20T10:02:17.945Z,100795.16
2019-02-20T10:03:19.056Z,100789.45
2019-02-20T10:04:20.169Z,100786.42
2019-02-20T10:05:21.323Z,100797.33
2019-02-20T10:06:22.432Z,100801.84
2019-02-20T10:07:23.653Z,100805.53
2019-02-20T10:08:24.778Z,100808.72
2019-02-20T10:09:25.894Z,100805.84
2019-02-20T10:10:27.023Z,100806.70
2019-02-20T10:11:28.241Z,100821.94
2019-02-20T10:12:29.363Z,100821.94
2019-02-20T10:13:30.481Z,100824.63
2019-02-20T10:14:31.597Z,100808.87
2019-02-20T10:15:32.836Z,100816.09
2019-02-20T10:16:33.950Z,100827.66
2019-02-20T10:17:35.065Z,100835.70
2019-02-20T10:18:36.180Z,100838.90
2019-02-20T10:19:37.293Z,100835.02
2019-02-20T10:20:38.425Z,100839.04
2019-02-20T10:21:39.545Z,100842.73
2019-02-20T10:22:40.762Z,100844.06
2019-02-20T10:23:41.877Z,100850.43
2019-02-20T10:24:42.992Z,100847.27
2019-02-20T10:25:44.150Z,100848.75
2019-02-20T10:26:45.266Z,100852.62
2019-02-20T10:27:46.382Z,100847.61
2019-02-20T10:28:47.497Z,100857.14
2019-02-20T10:29:48.630Z,100853.11
2019-02-20T10:30:49.759Z,100858.48
2019-02-20T10:31:50.868Z,100861.81
2019-02-20T10:32:51.985Z,100863.16
2019-02-20T10:33:53.208Z,100872.55
2019-02-20T10:34:54.318Z,100865.84
2019-02-20T10:35:55.470Z,100861.30
2019-02-20T10:36:56.585Z,100876.23
2019-02-20T10:37:57.703Z,100874.55
2019-02-20T10:38:58.822Z,100875.38
2019-02-20T10:39:59.985Z,100882.26
2019-02-20T10:41:01.104Z,100884.59
2019-02-20T10:42:02.222Z,100881.91
2019-02-20T10:43:03.725Z,100884.25
2019-02-20T10:44:05.058Z,100882.05
2019-02-20T10:45:10.792Z,100875.86
2019-02-20T10:46:11.922Z,100887.08
2019-02-20T10:47:13.139Z,100882.23
2019-02-20T10:48:14.360Z,100889.93
2019-02-20T10:49:15.585Z,100882.36
2019-02-20T10:50:16.715Z,100891.92
2019-02-20T10:51:17.857Z,100892.92
2019-02-20T10:52:18.968Z,100899.28
2019-02-20T10:53:20.083Z,100896.27
2019-02-20T10:54:21.341Z,100916.03
2019-02-20T10:55:22.453Z,100904.96
2019-02-20T10:56:23.596Z,100907.78
2019-02-20T10:57:24.809Z,100910.63
2019-02-20T10:58:25.923Z,100921.50
2019-02-20T10:59:27.041Z,100925.05
2019-02-20T11:00:28.661Z,100915.28
2019-02-20T11:01:29.937Z,100920.64
2019-02-20T11:02:31.049Z,100927.00
2019-02-20T11:03:32.168Z,100919.95
2019-02-20T11:04:33.291Z,100924.84
2019-02-20T11:05:34.426Z,100931.20
2019-02-20T11:06:35.548Z,100925.84
2019-02-20T11:07:36.669Z,100934.36
2019-02-20T11:08:37.791Z,100936.56
2019-02-20T11:09:38.900Z,100941.58
2019-02-20T11:10:40.072Z,100935.70
2019-02-20T11:11:41.309Z,100944.09
2019-02-20T11:12:42.429Z,100943.09
2019-02-20T11:13:43.545Z,100941.76
2019-02-20T11:14:44.666Z,100943.44
2019-02-20T11:15:45.784Z,100934.91
2019-02-20T11:16:46.919Z,100952.21
2019-02-20T11:17:48.034Z,100960.60
2019-02-20T11:18:49.258Z,100956.06
2019-02-20T11:19:50.379Z,100948.87
2019-02-20T11:20:51.602Z,100956.92
2019-02-20T11:21:52.733Z,100955.92
2019-02-20T11:22:53.853Z,100958.95
2019-02-20T11:23:54.971Z,100964.66
2019-02-20T11:24:56.088Z,100957.95
2019-02-20T11:25:57.212Z,100962.33
2019-02-20T11:26:58.451Z,100970.20
2019-02-20T11:27:59.890Z,100969.72
2019-02-20T11:29:01.102Z,100980.28
2019-02-20T11:30:04.417Z,100991.88
2019-02-20T11:31:05.666Z,100982.48
2019-02-20T11:32:06.820Z,100990.02
2019-02-20T11:33:07.933Z,100985.00
2019-02-20T11:34:09.047Z,100987.20
2019-02-20T11:35:10.260Z,100988.02
2019-02-20T11:36:11.480Z,100998.27
2019-02-20T11:37:12.785Z,101008.84
2019-02-20T11:38:14.256Z,100998.45
2019-02-20T11:39:15.528Z,101003.33
2019-02-20T11:40:16.636Z,100991.61
2019-02-20T11:41:17.856Z,101006.19
2019-02-20T11:42:19.085Z,101005.71
2019-02-20T11:43:21.358Z,100999.34
2019-02-20T11:44:22.630Z,101007.39
2019-02-20T11:45:23.855Z,101013.11
2019-02-20T11:46:24.968Z,101019.68
2019-02-20T11:47:26.107Z,101020.84
2019-02-20T11:48:27.228Z,101019.03
2019-02-20T11:49:28.348Z,101024.39
2019-02-20T11:50:29.468Z,101026.56
2019-02-20T11:51:30.710Z,101024.88
2019-02-20T11:52:38.138Z,101029.76